This is the latest recevied weather packets stored in our database for station/object KE2LU. If no packets are shown the sender has not sent any weather packets the latest 10 day(s).
| Time | Temp. | Humidity | Pressure | Rain* | Wind** | Luminosity | Snow |
|---|---|---|---|---|---|---|---|
| 1777292702 | 12.78° C | 79% | 1025.2 hPa | 0 mm | - | - | - |
| 1777289702 | 8.33° C | 96% | 1025 hPa | 0 mm | - | - | - |
| 1777288202 | 5.56° C | 98% | 1024.8 hPa | 0 mm | - | - | - |
| 1777285502 | 1.11° C | 97% | 1024.4 hPa | 0 mm | - | - | - |
| 1777285201 | 1.11° C | 97% | 1024.4 hPa | 0 mm | - | - | - |
| 1777282802 | 1.67° C | 98% | 1024 hPa | 0 mm | - | - | - |
| 1777281902 | 1.67° C | 97% | 1023.8 hPa | 0 mm | - | - | - |
| 1777280402 | 1.67° C | 97% | 1023.6 hPa | 0 mm | - | - | - |
| 1777279502 | 1.67° C | 97% | 1023.6 hPa | 0 mm | - | - | - |
| 1777278902 | 1.67° C | 97% | 1023.6 hPa | 0 mm | - | - | - |
| 1777278602 | 1.67° C | 97% | 1023.6 hPa | 0 mm | - | - | - |
| 1777277402 | 2.22° C | 97% | 1023.7 hPa | 0 mm | - | - | - |
| 1777274702 | 2.22° C | 97% | 1023.5 hPa | 0 mm | - | - | - |
| 1777273802 | 2.78° C | 97% | 1023.9 hPa | 0 mm | - | - | - |
| 1777273502 | 2.78° C | 97% | 1024 hPa | 0 mm | - | - | - |
| 1777272302 | 2.78° C | 96% | 1024 hPa | 0 mm | - | - | - |
| 1777272002 | 2.78° C | 97% | 1024 hPa | 0 mm | - | - | - |
| 1777271402 | 2.78° C | 97% | 1024 hPa | 0 mm | - | - | - |
| 1777271102 | 2.78° C | 97% | 1023.9 hPa | 0 mm | - | - | - |
| 1777268402 | 2.78° C | 95% | 1023.8 hPa | 0 mm | - | - | - |
| 1777268103 | 2.78° C | 96% | 1023.9 hPa | 0 mm | - | - | - |
| 1777264202 | 3.33° C | 94% | 1023.7 hPa | 0 mm | - | - | - |
| 1777263602 | 3.33° C | 95% | 1023.6 hPa | 0 mm | - | - | - |
| 1777263003 | 3.33° C | 94% | 1023.5 hPa | 0 mm | - | - | - |
| 1777262703 | 3.33° C | 94% | 1023.4 hPa | 0 mm | - | - | - |
* Rain latest hour (hover to see other rain measurements)
** Current wind speed in m/s (hover to see current wind gust speed)